createdAt,value
2022-08-12T00:02:49.613Z,99.90
2022-08-12T00:09:10.933Z,99.90
2022-08-12T00:15:35.386Z,99.90
2022-08-12T00:21:57.154Z,99.90
2022-08-12T00:28:18.027Z,99.90
2022-08-12T00:34:38.415Z,99.90
2022-08-12T00:41:00.805Z,99.90
2022-08-12T00:47:02.792Z,99.90
2022-08-12T00:53:07.074Z,99.90
2022-08-12T00:59:09.296Z,99.90
2022-08-12T01:05:32.677Z,99.90
2022-08-12T01:11:34.655Z,99.90
2022-08-12T01:17:36.755Z,99.90
2022-08-12T01:23:46.967Z,99.90
2022-08-12T01:29:55.127Z,99.90
2022-08-12T01:36:08.377Z,99.90
2022-08-12T01:42:11.421Z,99.90
2022-08-12T01:48:37.022Z,99.90
2022-08-12T01:54:44.803Z,99.90
2022-08-12T02:00:56.022Z,99.90
2022-08-12T02:07:37.433Z,99.90
2022-08-12T02:14:02.049Z,99.90
2022-08-12T02:20:15.730Z,99.90
2022-08-12T02:26:19.967Z,99.90
2022-08-12T02:32:22.374Z,99.90
2022-08-12T02:38:27.789Z,99.90
2022-08-12T02:44:37.404Z,99.90
2022-08-12T02:50:50.851Z,99.90
2022-08-12T02:56:54.007Z,99.90
2022-08-12T03:02:58.589Z,99.90
2022-08-12T03:09:04.640Z,99.90
2022-08-12T03:15:10.956Z,99.90
2022-08-12T03:21:15.582Z,99.90
2022-08-12T03:27:17.779Z,99.90
2022-08-12T03:33:21.181Z,99.90
2022-08-12T03:39:40.727Z,99.90
2022-08-12T03:46:02.110Z,99.90
2022-08-12T03:52:23.579Z,99.90
2022-08-12T03:58:44.537Z,99.90
2022-08-12T04:04:47.300Z,99.90
2022-08-12T04:11:09.908Z,99.90
2022-08-12T04:17:12.433Z,99.90
2022-08-12T04:23:17.415Z,99.90
2022-08-12T04:29:22.035Z,99.90
2022-08-12T04:35:43.975Z,99.90
2022-08-12T04:41:58.464Z,99.90
2022-08-12T04:48:02.054Z,99.90
2022-08-12T04:54:05.182Z,99.90
2022-08-12T05:00:12.572Z,99.90
2022-08-12T05:06:20.857Z,99.90
2022-08-12T05:12:34.456Z,99.90
2022-08-12T05:18:38.509Z,99.90
2022-08-12T05:24:41.607Z,99.90
2022-08-12T05:30:49.236Z,99.90
2022-08-12T05:36:51.065Z,99.90
2022-08-12T05:42:55.963Z,99.90
2022-08-12T05:49:03.522Z,99.90
2022-08-12T05:55:05.678Z,99.90
2022-08-12T06:02:10.464Z,99.90
2022-08-12T06:08:00.076Z,99.90
2022-08-12T06:13:58.467Z,99.90
2022-08-12T06:20:28.418Z,99.90
2022-08-12T06:26:26.221Z,99.90
2022-08-12T06:32:29.608Z,99.90
2022-08-12T06:38:34.950Z,99.90
2022-08-12T06:44:41.875Z,99.90
2022-08-12T06:50:44.457Z,99.90
2022-08-12T06:57:03.708Z,99.90
2022-08-12T07:03:16.264Z,99.90
2022-08-12T07:10:03.905Z,99.90
2022-08-12T07:15:50.277Z,99.90
2022-08-12T07:22:02.392Z,99.90
2022-08-12T07:28:16.659Z,99.90
2022-08-12T07:34:19.017Z,99.90
2022-08-12T07:40:20.910Z,99.90
2022-08-12T07:46:31.235Z,99.90
2022-08-12T07:52:34.170Z,99.90
2022-08-12T07:58:45.253Z,99.90
2022-08-12T08:04:57.683Z,99.90
2022-08-12T08:11:19.527Z,99.90
2022-08-12T08:17:21.650Z,99.90
2022-08-12T08:23:46.348Z,99.90
2022-08-12T08:29:48.982Z,99.80
2022-08-12T08:35:50.751Z,97.10
2022-08-12T08:42:19.821Z,94.80
2022-08-12T08:48:24.753Z,94.60
2022-08-12T08:54:29.215Z,94.00
2022-08-12T09:00:31.112Z,91.30
2022-08-12T09:06:37.130Z,86.10
2022-08-12T09:13:01.953Z,85.40
2022-08-12T09:19:06.328Z,82.20
2022-08-12T09:25:33.268Z,74.30
2022-08-12T09:32:03.615Z,69.90
2022-08-12T09:38:00.747Z,67.50
2022-08-12T09:44:39.579Z,65.40
2022-08-12T09:50:41.647Z,64.80
2022-08-12T09:56:59.710Z,62.60
2022-08-12T10:03:32.566Z,60.90
2022-08-12T10:09:57.479Z,59.50
2022-08-12T10:16:02.033Z,57.90
2022-08-12T10:22:17.151Z,57.80
2022-08-12T10:29:01.856Z,59.30
2022-08-12T10:35:05.401Z,54.50
2022-08-12T10:41:57.348Z,56.40
2022-08-12T10:48:07.418Z,55.00
2022-08-12T10:54:13.612Z,55.40
2022-08-12T11:00:34.944Z,52.90
2022-08-12T11:07:06.817Z,54.40
2022-08-12T11:13:03.255Z,53.40
2022-08-12T11:19:12.093Z,54.00
2022-08-12T11:25:14.876Z,53.80
2022-08-12T11:31:17.404Z,51.40
2022-08-12T11:37:26.401Z,52.60
2022-08-12T11:43:30.855Z,51.60
2022-08-12T11:49:32.883Z,51.40
2022-08-12T11:55:35.587Z,51.40
2022-08-12T12:02:00.731Z,53.40
2022-08-12T12:08:38.223Z,49.70
2022-08-12T12:14:38.210Z,49.30
2022-08-12T12:20:40.938Z,51.30
2022-08-12T12:26:42.755Z,51.80
2022-08-12T12:32:53.350Z,50.70
2022-08-12T12:38:55.434Z,50.50
2022-08-12T12:44:57.247Z,50.00
2022-08-12T12:51:48.399Z,50.10
2022-08-12T12:58:00.727Z,51.80
2022-08-12T13:04:03.219Z,51.40
2022-08-12T13:10:05.378Z,51.90
2022-08-12T13:16:14.437Z,51.60
2022-08-12T13:22:23.520Z,52.40
2022-08-12T13:28:28.654Z,51.50
2022-08-12T13:34:34.954Z,51.60
2022-08-12T13:40:40.975Z,52.60
2022-08-12T13:46:42.798Z,51.40
2022-08-12T13:52:46.356Z,49.90
2022-08-12T13:58:52.727Z,51.50
2022-08-12T14:04:56.638Z,49.80
2022-08-12T14:10:58.990Z,51.20
2022-08-12T14:17:02.375Z,50.40
2022-08-12T14:24:00.957Z,49.90
2022-08-12T14:29:38.151Z,48.30
2022-08-12T14:35:53.364Z,49.10
2022-08-12T14:41:57.410Z,49.30
2022-08-12T14:47:59.329Z,48.30
2022-08-12T14:56:59.270Z,48.80
2022-08-12T15:00:47.336Z,47.90
2022-08-12T15:06:53.322Z,48.40
2022-08-12T15:12:58.264Z,48.60
2022-08-12T15:19:01.460Z,47.80
2022-08-12T15:25:17.835Z,47.70
2022-08-12T15:31:27.918Z,50.70
2022-08-12T15:38:09.005Z,49.20
2022-08-12T15:44:37.323Z,48.90
2022-08-12T15:50:32.384Z,48.80
2022-08-12T15:56:37.221Z,49.10
2022-08-12T16:02:50.569Z,49.20
2022-08-12T16:08:58.011Z,49.30
2022-08-12T16:15:04.341Z,50.50
2022-08-12T16:21:51.620Z,50.00
2022-08-12T16:27:51.680Z,50.10
2022-08-12T16:33:59.488Z,51.70
2022-08-12T16:40:06.535Z,51.70
2022-08-12T16:46:31.318Z,52.00
2022-08-12T16:52:34.849Z,52.00
2022-08-12T16:58:40.485Z,52.20
2022-08-12T17:04:52.873Z,52.40
2022-08-12T17:10:57.719Z,52.20
2022-08-12T17:17:04.455Z,51.60
2022-08-12T17:23:14.435Z,49.50
2022-08-12T17:29:32.405Z,50.00
2022-08-12T17:35:49.983Z,49.90
2022-08-12T17:41:56.566Z,50.80
2022-08-12T17:48:05.295Z,50.80
2022-08-12T17:54:12.660Z,50.80
2022-08-12T18:00:16.678Z,51.90
2022-08-12T18:06:21.172Z,51.70
2022-08-12T18:12:42.735Z,52.70
2022-08-12T18:18:50.602Z,52.70
2022-08-12T18:25:03.937Z,55.20
2022-08-12T18:31:06.921Z,57.10
2022-08-12T18:37:40.995Z,59.80
2022-08-12T18:43:44.711Z,60.90
2022-08-12T18:49:57.903Z,64.80
2022-08-12T18:56:04.401Z,67.40
2022-08-12T19:02:19.134Z,69.60
2022-08-12T19:08:29.887Z,72.80
2022-08-12T19:14:35.198Z,74.20
2022-08-12T19:20:39.273Z,75.30
2022-08-12T19:26:42.431Z,75.80
2022-08-12T19:32:48.986Z,76.70
2022-08-12T19:38:57.062Z,78.80
2022-08-12T19:45:04.537Z,80.60
2022-08-12T19:51:22.687Z,81.60
2022-08-12T19:57:28.985Z,83.60
2022-08-12T20:03:39.796Z,85.00
2022-08-12T20:09:47.774Z,86.00
2022-08-12T20:15:58.791Z,86.50
2022-08-12T20:22:03.415Z,86.30
2022-08-12T20:28:09.557Z,87.60
2022-08-12T20:34:12.106Z,89.80
2022-08-12T20:40:14.318Z,90.60
2022-08-12T20:46:19.108Z,90.80
2022-08-12T20:52:25.505Z,90.50
2022-08-12T20:58:41.756Z,91.20
2022-08-12T21:05:16.099Z,91.80
2022-08-12T21:11:26.406Z,92.40
2022-08-12T21:18:08.792Z,93.00
2022-08-12T21:23:59.756Z,93.20
2022-08-12T21:30:06.055Z,93.20
2022-08-12T21:36:14.519Z,93.70
2022-08-12T21:42:32.691Z,94.40
2022-08-12T21:48:57.543Z,94.80
2022-08-12T21:55:18.056Z,95.10
2022-08-12T22:07:45.937Z,95.70
2022-08-12T22:14:07.274Z,96.00
2022-08-12T22:20:17.969Z,96.70
2022-08-12T22:26:37.335Z,97.50
2022-08-12T22:32:55.200Z,98.70
2022-08-12T22:39:26.370Z,99.90
2022-08-12T22:46:26.693Z,99.90
2022-08-12T22:52:38.669Z,99.90
2022-08-12T22:58:41.576Z,99.90
2022-08-12T23:04:43.489Z,99.90
2022-08-12T23:10:48.921Z,99.90
2022-08-12T23:16:51.716Z,99.90
2022-08-12T23:22:55.966Z,99.90
2022-08-12T23:29:30.149Z,99.90
2022-08-12T23:35:45.827Z,99.90
2022-08-12T23:42:17.967Z,99.90
2022-08-12T23:48:23.250Z,99.90
2022-08-12T23:54:44.054Z,99.90
